Thursday, November 23, 2017, 7:17 PM EST
Back to Local

KWAL, Wallops Flight Fac Airport

Location: Wallops Island, VA, United States Lat: 37.933
Local Time: 7:17 PM EST ( 0:17 GMT) Lon: -75.467
Time Zone: US/Eastern Elev: 39 ft

Show me the last for .
Show Decoded

2017-11-23 18:54 METAR KWAL 232354Z AUTO 00000KT 10SM CLR 01/M03 A3009 RMK AO2 SLP184 T00111028
                 10056 20011 55002 =
2017-11-23 17:54 METAR KWAL 232254Z AUTO 29003KT 10SM CLR 02/M03 A3008 RMK AO2 SLP183 T00171028 =
2017-11-23 16:54 METAR KWAL 232154Z AUTO 28003KT 10SM CLR 03/M03 A3009 RMK AO2 SLP187 T00281028 =
2017-11-23 15:54 METAR KWAL 232054Z AUTO 10SM CLR 04/M02 A3009 RMK AO2 SLP186 T00441022 55010 =
2017-11-23 14:54 METAR KWAL 231954Z AUTO 30006KT 10SM CLR 05/M03 A3008 RMK AO2 SLP184 T00501028 =
2017-11-23 13:54 METAR KWAL 231854Z AUTO 10SM CLR 05/M03 A3010 RMK AO2 SLP191 T00501033 =
2017-11-23 12:54 METAR KWAL 231754Z AUTO 33004KT 10SM CLR 06/M03 A3012 RMK AO2 SLP197 T00561033
                 10056 21006 57021 =
2017-11-23 11:54 METAR KWAL 231654Z AUTO 00000KT 10SM CLR 04/M04 A3014 RMK AO2 SLP203 T00441039 =
2017-11-23 10:54 METAR KWAL 231554Z AUTO 34006KT 10SM CLR 04/M04 A3016 RMK AO2 SLP211 T00441039 =
2017-11-23 09:54 METAR KWAL 231454Z AUTO 34005KT 10SM CLR 04/M04 A3018 RMK AO2 SLP217 T00391044
                 50004 =
2017-11-23 08:54 METAR KWAL 231354Z AUTO 01007KT 10SM CLR 02/M03 A3019 RMK AO2 SLP220 T00171033 =
2017-11-23 07:54 METAR KWAL 231254Z AUTO 10SM CLR 01/M03 A3019 RMK AO2 SLP219 T00061033 =
2017-11-23 06:54 METAR KWAL 231154Z AUTO 33005KT 10SM CLR 00/M04 A3017 RMK AO2 SLP213 70011
                 T00001039 10033 20000 53004 =
2017-11-23 05:54 METAR KWAL 231054Z AUTO 35004KT 10SM CLR 01/M03 A3015 RMK AO2 SLP208 T00061033 =
2017-11-23 04:54 METAR KWAL 230954Z AUTO 33003KT 10SM CLR 01/M03 A3016 RMK AO2 SLP209 T00111033 =
2017-11-23 03:54 METAR KWAL 230854Z AUTO 33003KT 10SM CLR 02/M03 A3016 RMK AO2 SLP209 T00171033
                 53001 =
2017-11-23 02:54 METAR KWAL 230754Z AUTO 34006KT 10SM CLR 02/M03 A3015 RMK AO2 SLP207 T00221033 =
2017-11-23 01:54 METAR KWAL 230654Z AUTO 32005KT 10SM CLR 02/M03 A3015 RMK AO2 SLP208 T00221028 =
2017-11-23 00:54 METAR KWAL 230554Z AUTO 32003KT 10SM CLR 03/M02 A3015 RMK AO2 SLP208 T00331022
                 10078 20033 50006 =
2017-11-22 23:54 METAR KWAL 230454Z AUTO 34007KT 10SM CLR 04/M02 A3016 RMK AO2 SLP208 T00441022
                 401610039 =
2017-11-22 22:54 METAR KWAL 230354Z AUTO 32007KT 10SM CLR 04/M01 A3015 RMK AO2 SLP208 T00441006 =
2017-11-22 21:54 METAR KWAL 230254Z AUTO 31006KT 10SM CLR 06/M01 A3014 RMK AO2 SLP201 T00561006
                 51018 =
2017-11-22 20:54 METAR KWAL 230154Z AUTO 31006KT 10SM CLR 06/M01 A3013 RMK AO2 SLP198 T00611006 =
2017-11-22 19:54 METAR KWAL 230054Z AUTO 31005KT 10SM CLR 07/00 A3010 RMK AO2 SLP189 T00670000 =

Support USWX by starting your Amazon purchase here.